Time;durP1;ratioP1;P1;durP2;ratioP2;P2;SDS_P1;SDS_P2;PMS_P1;PMS_P2;Temp;Humidity;BMP_temperature;BMP_pressure;BME280_temperature;BME280_humidity;BME280_pressure;Samples;Min_cycle;Max_cycle;Signal;HPM_P1;HPM_P2
2021/03/07 00:01:29;;;;;;;9.80;5.35;;;;;;;-2.02;88.52;103099.75;4992498;28;20293;-71
2021/03/07 00:03:55;;;;;;;8.60;4.40;;;;;;;-2.05;88.06;103096.88;5000824;28;20016;-71
2021/03/07 00:06:20;;;;;;;11.15;5.07;;;;;;;-2.05;88.38;103094.38;5018990;28;20270;-71
2021/03/07 00:08:46;;;;;;;8.30;4.43;;;;;;;-2.09;88.37;103099.81;4991424;28;20349;-71
2021/03/07 00:11:11;;;;;;;8.20;4.85;;;;;;;-2.14;88.67;103093.38;5009896;28;20341;-72
2021/03/07 00:13:37;;;;;;;11.65;5.25;;;;;;;-2.13;88.42;103090.13;5011076;28;20373;-71
2021/03/07 00:16:03;;;;;;;9.10;5.05;;;;;;;-2.11;88.85;103095.31;4997600;28;20427;-71
2021/03/07 00:18:28;;;;;;;10.02;5.22;;;;;;;-2.12;89.47;103094.44;5006167;28;20425;-71
2021/03/07 00:20:54;;;;;;;13.48;6.28;;;;;;;-2.05;89.98;103091.84;5014646;28;20350;-72
2021/03/07 00:23:19;;;;;;;11.30;6.60;;;;;;;-1.97;90.45;103085.13;5013462;28;20340;-71
2021/03/07 00:25:44;;;;;;;10.55;5.70;;;;;;;-1.93;90.84;103085.66;4987670;28;20442;-71
2021/03/07 00:28:10;;;;;;;13.93;6.25;;;;;;;-1.88;91.18;103084.53;5011426;28;20113;-71
2021/03/07 00:30:36;;;;;;;12.85;6.50;;;;;;;-1.79;91.50;103083.75;5010392;28;20366;-71
2021/03/07 00:33:01;;;;;;;11.60;5.90;;;;;;;-1.77;91.60;103084.81;5012862;28;20383;-71
2021/03/07 00:35:27;;;;;;;11.77;5.15;;;;;;;-1.78;91.65;103076.34;5007066;28;20366;-71
2021/03/07 00:37:52;;;;;;;12.27;6.00;;;;;;;-1.79;90.73;103078.69;4987903;28;20202;-71
2021/03/07 00:40:18;;;;;;;12.85;6.68;;;;;;;-1.81;90.40;103077.63;4994954;28;20384;-71
2021/03/07 00:42:46;;;;;;;10.65;5.53;;;;;;;-1.83;90.51;103072.44;4991406;28;20016;-71
2021/03/07 00:45:13;;;;;;;10.83;5.23;;;;;;;-1.85;90.03;103075.53;5004540;28;20043;-71
2021/03/07 00:47:40;;;;;;;8.20;5.07;;;;;;;-1.91;89.47;103071.63;4993031;28;20576;-71
2021/03/07 00:50:16;;;;;;;15.87;5.57;;;;;;;-1.91;89.20;103079.16;4992795;28;20139;-72
2021/03/07 00:52:42;;;;;;;;;;;;;;;-1.93;88.54;103068.03;4995197;28;20472;-72
2021/03/07 00:55:08;;;;;;;11.27;5.17;;;;;;;-1.94;87.84;103071.28;5020647;28;19912;-71
2021/03/07 00:57:33;;;;;;;8.98;5.20;;;;;;;-1.95;88.18;103073.63;5019724;28;20032;-72
2021/03/07 00:59:59;;;;;;;9.80;5.10;;;;;;;-1.93;88.39;103073.06;5010382;28;20293;-72
2021/03/07 01:02:26;;;;;;;11.38;6.28;;;;;;;-1.92;88.19;103077.38;5012125;28;20311;-71
2021/03/07 01:04:51;;;;;;;11.87;5.50;;;;;;;-1.96;88.09;103070.19;5014394;28;20028;-71
2021/03/07 01:07:18;;;;;;;13.40;5.63;;;;;;;-1.95;88.06;103072.00;5018816;28;20345;-71
2021/03/07 01:09:44;;;;;;;11.23;6.07;;;;;;;-1.94;88.60;103070.38;4996008;28;20109;-71
2021/03/07 01:12:09;;;;;;;9.35;6.10;;;;;;;-1.94;88.33;103066.25;5011974;28;20186;-71
2021/03/07 01:14:35;;;;;;;13.13;6.93;;;;;;;-1.90;88.56;103065.84;4996264;28;20419;-71
2021/03/07 01:17:00;;;;;;;14.90;6.32;;;;;;;-1.86;89.77;103066.19;5013401;28;20221;-72
2021/03/07 01:19:28;;;;;;;13.82;6.53;;;;;;;-1.81;90.43;103062.53;4997119;28;20349;-72
2021/03/07 01:21:54;;;;;;;13.87;6.70;;;;;;;-1.76;90.35;103066.44;5010783;28;20088;-71
2021/03/07 01:24:20;;;;;;;11.30;5.97;;;;;;;-1.74;90.23;103055.78;4997100;28;20408;-71
2021/03/07 01:26:45;;;;;;;17.90;7.07;;;;;;;-1.74;89.88;103049.84;5012519;28;20300;-71
2021/03/07 01:29:11;;;;;;;11.25;5.07;;;;;;;-1.72;89.85;103043.34;5016435;28;20349;-72
2021/03/07 01:31:36;;;;;;;13.00;6.07;;;;;;;-1.69;90.07;103038.66;5016390;28;20334;-72
2021/03/07 01:34:02;;;;;;;10.48;6.28;;;;;;;-1.64;90.25;103040.03;5008347;28;20249;-72
2021/03/07 01:36:27;;;;;;;20.70;9.40;;;;;;;-1.54;90.88;103031.84;5005741;28;20458;-71
2021/03/07 01:38:53;;;;;;;17.05;7.80;;;;;;;-1.52;91.49;103023.72;5016594;28;20375;-71
2021/03/07 01:41:18;;;;;;;12.18;6.60;;;;;;;-1.50;91.64;103021.38;4986688;28;20308;-71
2021/03/07 01:43:44;;;;;;;12.05;6.95;;;;;;;-1.49;91.30;103021.53;4995332;28;20013;-71
2021/03/07 01:46:09;;;;;;;16.98;7.60;;;;;;;-1.44;91.26;103017.88;5010277;28;20411;-72
2021/03/07 01:48:35;;;;;;;15.88;8.32;;;;;;;-1.40;91.49;103012.41;5005736;28;20350;-72
2021/03/07 01:51:00;;;;;;;13.82;8.13;;;;;;;-1.23;91.40;103010.81;5023633;28;20477;-71
2021/03/07 01:53:26;;;;;;;13.35;7.18;;;;;;;-1.26;91.16;103004.69;5003670;28;20032;-72
2021/03/07 01:55:52;;;;;;;10.95;6.47;;;;;;;-1.23;91.02;103008.28;5009944;28;20028;-72
2021/03/07 01:58:23;;;;;;;12.37;6.93;;;;;;;-1.21;91.19;103001.75;5012331;28;20021;-72
2021/03/07 02:00:48;;;;;;;17.83;8.03;;;;;;;-1.18;91.07;102997.94;5002985;28;20123;-72
2021/03/07 02:03:14;;;;;;;19.23;9.90;;;;;;;-1.15;91.75;102992.31;5015296;28;20198;-71
2021/03/07 02:05:40;;;;;;;17.48;10.10;;;;;;;-1.04;91.96;102989.28;5009764;28;20028;-72
2021/03/07 02:08:06;;;;;;;14.35;8.27;;;;;;;-0.99;92.34;102989.00;5013405;28;20034;-71
2021/03/07 02:10:39;;;;;;;18.17;9.18;;;;;;;-0.96;91.82;102983.44;5019377;28;20024;-72
2021/03/07 02:15:48;;;;;;;28.73;11.73;;;;;;;-0.87;92.23;102986.00;4965725;28;20328;-78
2021/03/07 02:18:14;;;;;;;16.03;10.17;;;;;;;-0.82;92.23;102972.22;4949090;28;20029;-78
2021/03/07 02:21:03;;;;;;;;;;;;;;;-0.79;92.19;102975.06;4965636;28;20251;-78
2021/03/07 02:23:33;;;;;;;;;;;;;;;-0.78;91.68;102965.13;4959374;28;19921;-78
2021/03/07 02:25:59;;;;;;;16.23;7.83;;;;;;;-0.73;91.93;102966.47;4972775;28;20452;-78
2021/03/07 02:28:26;;;;;;;13.70;7.93;;;;;;;-0.69;91.50;102957.59;4970483;28;20025;-78
2021/03/07 02:30:53;;;;;;;11.33;7.47;;;;;;;-0.69;91.33;102965.16;4964086;28;20029;-78
2021/03/07 02:33:31;;;;;;;18.43;8.23;;;;;;;-0.65;90.92;102953.06;4969717;28;20102;-78
2021/03/07 02:36:02;;;;;;;14.20;8.80;;;;;;;-0.65;90.86;102950.53;4967733;28;20025;-78
2021/03/07 02:38:34;;;;;;;14.70;7.40;;;;;;;-0.59;91.17;102944.31;4971149;28;20064;-78
2021/03/07 02:41:00;;;;;;;17.83;9.70;;;;;;;-0.57;90.99;102937.78;4982138;28;20033;-78
2021/03/07 02:43:30;;;;;;;15.63;8.93;;;;;;;-0.55;91.37;102933.78;4975530;28;20051;-78
2021/03/07 02:45:59;;;;;;;16.90;9.97;;;;;;;-0.57;91.13;102933.63;4953904;28;20044;-78
2021/03/07 02:48:27;;;;;;;14.23;8.90;;;;;;;-0.56;91.02;102930.38;4978788;28;20040;-78
2021/03/07 02:50:52;;;;;;;16.27;10.37;;;;;;;-0.55;90.67;102922.06;4979020;28;20029;-78
2021/03/07 02:53:22;;;;;;;22.23;11.38;;;;;;;-0.50;91.40;102920.88;4981965;28;20385;-78
2021/03/07 02:55:54;;;;;;;16.63;9.13;;;;;;;-0.44;91.78;102925.66;4982955;28;20024;-78
2021/03/07 02:58:21;;;;;;;19.20;10.17;;;;;;;-0.42;91.58;102925.06;4977507;28;20029;-77
2021/03/07 03:00:52;;;;;;;15.80;9.13;;;;;;;-0.41;92.02;102923.44;4964429;28;20076;-79
2021/03/07 03:03:21;;;;;;;18.50;10.87;;;;;;;-0.38;91.92;102916.16;4970162;28;20076;-78
2021/03/07 03:05:48;;;;;;;20.63;8.70;;;;;;;-0.37;91.76;102915.41;4966977;28;20017;-78
2021/03/07 03:08:15;;;;;;;16.13;9.80;;;;;;;-0.34;91.90;102918.25;4958610;28;20046;-79
2021/03/07 03:10:41;;;;;;;17.43;9.93;;;;;;;-0.35;91.35;102911.41;4978825;28;20052;-77
2021/03/07 03:13:08;;;;;;;15.02;9.68;;;;;;;-0.33;91.63;102908.34;4977724;28;20046;-78
2021/03/07 03:15:34;;;;;;;12.40;8.37;;;;;;;-0.31;91.21;102911.00;4961851;28;20029;-78
2021/03/07 03:18:00;;;;;;;12.80;8.40;;;;;;;-0.28;91.03;102906.28;4976360;28;20394;-79
2021/03/07 03:20:26;;;;;;;15.82;9.00;;;;;;;-0.32;91.03;102915.19;4955739;28;20387;-79
2021/03/07 03:22:53;;;;;;;17.20;9.50;;;;;;;-0.38;91.24;102912.00;4970534;28;20399;-77
2021/03/07 03:25:18;;;;;;;18.53;11.70;;;;;;;-0.35;91.86;102911.41;4969824;28;20139;-78
2021/03/07 03:27:44;;;;;;;18.30;10.25;;;;;;;-0.34;92.63;102909.03;4975941;28;20366;-78
2021/03/07 03:30:16;;;;;;;15.13;8.88;;;;;;;-0.29;92.49;102907.00;4967427;28;20359;-78
2021/03/07 03:32:42;;;;;;;19.43;9.43;;;;;;;-0.25;91.93;102904.03;4975337;28;20104;-78
2021/03/07 03:35:12;;;;;;;13.38;9.13;;;;;;;-0.25;91.50;102893.94;4965189;28;20398;-78
2021/03/07 03:37:39;;;;;;;20.13;11.13;;;;;;;-0.25;91.88;102903.16;4980514;28;20132;-79
2021/03/07 03:40:09;;;;;;;15.93;9.50;;;;;;;-0.22;92.25;102903.47;4977775;28;20098;-79
2021/03/07 03:42:39;;;;;;;17.17;10.80;;;;;;;-0.17;92.45;102903.16;4975845;28;20098;-78
2021/03/07 03:45:07;;;;;;;17.77;9.63;;;;;;;-0.15;92.09;102899.16;4957775;28;20047;-78
2021/03/07 03:47:34;;;;;;;20.57;12.40;;;;;;;-0.16;92.26;102904.94;4962556;28;20017;-78
2021/03/07 03:50:00;;;;;;;19.20;11.87;;;;;;;-0.15;92.33;102906.75;4952564;28;20033;-78
2021/03/07 03:52:27;;;;;;;18.60;10.67;;;;;;;-0.15;92.52;102898.28;4945782;28;20095;-78
2021/03/07 03:55:13;;;;;;;16.33;10.23;;;;;;;-0.13;92.24;102901.84;4970037;28;20028;-79
2021/03/07 03:57:40;;;;;;;16.85;10.07;;;;;;;-0.12;92.62;102891.00;4980194;28;20032;-78
2021/03/07 04:00:26;;;;;;;15.57;9.20;;;;;;;-0.08;92.52;102893.97;4965325;28;20033;-79
2021/03/07 04:02:57;;;;;;;17.13;9.70;;;;;;;-0.08;92.39;102893.97;4971309;28;20021;-78
2021/03/07 04:05:25;;;;;;;20.30;10.27;;;;;;;-0.06;91.86;102887.44;4967713;28;20140;-78
2021/03/07 04:07:51;;;;;;;16.53;9.43;;;;;;;-0.02;92.05;102894.56;4972856;28;20025;-78
2021/03/07 04:10:18;;;;;;;13.43;9.00;;;;;;;-0.01;91.83;102891.31;4972353;28;20025;-79
2021/03/07 04:12:46;;;;;;;12.37;8.40;;;;;;;0.02;91.60;102889.84;4964094;28;20022;-78
2021/03/07 04:15:14;;;;;;;15.40;9.70;;;;;;;0.03;91.38;102884.06;4951927;28;20135;-79
2021/03/07 04:17:41;;;;;;;14.93;9.70;;;;;;;0.04;92.03;102898.47;4971977;28;20017;-79
2021/03/07 04:20:07;;;;;;;17.83;9.70;;;;;;;0.05;92.05;102891.03;4980466;28;20030;-79
2021/03/07 04:22:33;;;;;;;14.65;9.27;;;;;;;0.07;91.85;102889.56;4964993;28;20877;-78
2021/03/07 04:24:58;;;;;;;15.48;10.35;;;;;;;0.05;91.55;102891.03;4974833;28;20098;-78
2021/03/07 04:27:24;;;;;;;14.18;9.13;;;;;;;0.07;91.18;102888.66;4977966;28;20056;-79
2021/03/07 04:29:51;;;;;;;16.02;9.57;;;;;;;0.08;91.16;102886.28;4974601;28;20405;-78
2021/03/07 04:32:18;;;;;;;13.20;8.73;;;;;;;0.08;91.21;102890.44;4979517;28;20160;-79
2021/03/07 04:34:44;;;;;;;18.97;9.53;;;;;;;0.08;91.37;102885.41;4966471;28;20107;-78
2021/03/07 04:37:11;;;;;;;12.53;8.80;;;;;;;0.11;91.54;102890.75;4980203;28;20021;-78
2021/03/07 04:39:36;;;;;;;14.75;9.98;;;;;;;0.13;91.95;102881.69;4975524;28;20033;-78
2021/03/07 04:42:04;;;;;;;17.17;10.50;;;;;;;0.17;92.03;102883.75;4961005;28;20482;-78
2021/03/07 04:44:29;;;;;;;12.47;8.57;;;;;;;0.19;92.36;102875.59;4971423;28;20033;-78
2021/03/07 04:46:55;;;;;;;14.40;8.90;;;;;;;0.19;91.83;102885.69;4969653;28;20440;-79
2021/03/07 04:49:20;;;;;;;14.63;8.30;;;;;;;0.20;91.62;102884.06;4969258;28;20315;-78
2021/03/07 04:51:46;;;;;;;14.35;9.13;;;;;;;0.25;91.30;102885.38;4965578;28;20290;-78
2021/03/07 04:54:11;;;;;;;15.13;10.55;;;;;;;0.23;91.44;102876.75;4975237;28;20309;-79
2021/03/07 04:56:37;;;;;;;15.80;9.65;;;;;;;0.42;91.77;102882.88;4973130;28;20316;-78
2021/03/07 04:59:02;;;;;;;14.05;8.55;;;;;;;0.36;91.52;102887.34;4957804;28;20348;-78
2021/03/07 05:01:28;;;;;;;14.80;9.32;;;;;;;0.26;91.10;102879.59;4970497;28;20430;-79
2021/03/07 05:03:53;;;;;;;14.48;9.75;;;;;;;0.21;91.33;102873.19;4950351;28;20496;-78
2021/03/07 05:06:23;;;;;;;13.77;9.13;;;;;;;0.22;91.69;102875.88;4981924;28;20363;-79
2021/03/07 05:08:48;;;;;;;13.87;9.50;;;;;;;0.22;91.69;102874.97;4965556;28;20041;-78
2021/03/07 05:11:14;;;;;;;18.30;10.63;;;;;;;0.27;91.86;102871.25;4973655;28;20328;-78
2021/03/07 05:13:39;;;;;;;12.75;9.52;;;;;;;0.28;92.09;102870.53;4968960;28;20029;-79
2021/03/07 05:16:05;;;;;;;16.05;9.32;;;;;;;0.30;91.94;102869.03;4960158;28;20340;-79
2021/03/07 05:18:31;;;;;;;13.52;10.20;;;;;;;0.19;92.29;102865.47;4954210;28;20332;-78
2021/03/07 05:20:56;;;;;;;17.05;9.90;;;;;;;0.18;92.17;102867.84;4974076;28;20338;-78
2021/03/07 05:23:22;;;;;;;16.98;10.65;;;;;;;0.28;92.38;102870.53;4980209;28;20324;-78
2021/03/07 05:25:47;;;;;;;16.80;10.10;;;;;;;0.34;92.21;102862.66;4979361;28;20301;-79
2021/03/07 05:28:13;;;;;;;12.63;8.15;;;;;;;0.41;92.05;102863.41;4978705;28;20340;-78
2021/03/07 05:30:38;;;;;;;14.32;9.75;;;;;;;0.37;92.22;102865.50;4975566;28;20250;-78
2021/03/07 05:33:04;;;;;;;14.90;10.30;;;;;;;0.41;92.14;102858.34;4976175;28;20383;-78
2021/03/07 05:35:29;;;;;;;13.23;9.18;;;;;;;0.47;91.66;102863.97;4970354;28;20424;-78
2021/03/07 05:37:55;;;;;;;15.20;9.77;;;;;;;0.34;91.28;102867.72;4979839;28;20319;-79
2021/03/07 05:40:20;;;;;;;16.42;9.00;;;;;;;0.30;91.86;102863.97;4978409;28;20327;-80
2021/03/07 05:42:46;;;;;;;16.02;10.77;;;;;;;0.31;91.85;102858.19;4982919;28;20319;-78
2021/03/07 05:45:12;;;;;;;19.35;11.00;;;;;;;0.29;92.31;102855.50;4966437;28;20435;-78
2021/03/07 05:47:38;;;;;;;16.00;10.27;;;;;;;0.29;92.57;102852.97;4964167;28;20083;-79
2021/03/07 05:50:05;;;;;;;13.60;9.35;;;;;;;0.31;92.25;102854.00;4975115;28;20043;-78
2021/03/07 05:52:31;;;;;;;19.03;10.00;;;;;;;0.33;92.32;102844.09;4972596;28;20025;-78
2021/03/07 05:54:56;;;;;;;16.02;9.48;;;;;;;0.35;92.17;102841.69;4973002;28;20168;-78
2021/03/07 05:57:24;;;;;;;15.20;9.25;;;;;;;0.37;92.24;102836.03;4981340;28;20021;-78
2021/03/07 05:59:50;;;;;;;11.83;8.93;;;;;;;0.56;92.05;102839.56;4983755;28;20655;-79
2021/03/07 06:02:17;;;;;;;13.87;8.30;;;;;;;0.59;91.39;102849.97;4972221;28;20022;-79
2021/03/07 06:04:43;;;;;;;9.17;5.70;;;;;;;0.73;84.94;102838.66;4974248;28;20151;-78
2021/03/07 06:07:10;;;;;;;16.97;9.83;;;;;;;0.71;90.58;102834.22;4980007;28;20141;-78
2021/03/07 06:09:36;;;;;;;15.07;9.60;;;;;;;0.62;90.80;102842.69;4971071;28;20088;-78
2021/03/07 06:12:12;;;;;;;18.27;11.53;;;;;;;0.59;91.23;102832.28;4980527;28;20060;-78
2021/03/07 06:14:38;;;;;;;16.05;9.23;;;;;;;0.57;91.49;102838.81;4950913;28;20029;-79
2021/03/07 06:17:03;;;;;;;15.32;9.95;;;;;;;0.61;91.28;102837.47;4970837;28;20460;-78
2021/03/07 06:19:31;;;;;;;16.75;9.63;;;;;;;0.67;91.31;102827.09;4969451;28;20327;-78
2021/03/07 06:22:11;;;;;;;14.43;10.13;;;;;;;0.61;91.13;102834.94;4977558;28;20576;-79
2021/03/07 06:24:39;;;;;;;13.63;8.70;;;;;;;0.74;91.29;102824.38;4982430;28;20055;-78
2021/03/07 06:27:10;;;;;;;16.00;9.13;;;;;;;0.65;91.19;102826.00;4971508;28;20018;-78
2021/03/07 06:29:55;;;;;;;17.43;9.53;;;;;;;0.58;90.99;102827.97;4970696;28;20067;-78
2021/03/07 06:32:22;;;;;;;17.17;9.20;;;;;;;0.56;90.14;102824.41;4981893;28;20028;-78
2021/03/07 06:34:48;;;;;;;12.50;9.03;;;;;;;0.77;89.72;102827.19;4947042;28;20025;-78
2021/03/07 06:37:15;;;;;;;16.10;9.17;;;;;;;0.77;89.18;102817.06;4971978;28;20038;-79
2021/03/07 06:39:41;;;;;;;15.80;9.37;;;;;;;0.73;87.30;102812.47;4970804;28;20052;-76
2021/03/07 06:42:08;;;;;;;13.75;9.27;;;;;;;0.85;84.75;102813.63;4971700;28;20491;-76
2021/03/07 06:44:35;;;;;;;25.73;21.67;;;;;;;0.98;84.10;102818.22;4950647;28;20051;-76
2021/03/07 06:47:10;;;;;;;21.10;13.90;;;;;;;1.04;83.73;102812.09;4981999;28;20025;-76
2021/03/07 06:49:36;;;;;;;19.70;13.30;;;;;;;1.07;84.54;102811.47;4982822;28;20021;-77
2021/03/07 06:52:15;;;;;;;;;;;;;;;1.11;86.89;102809.38;4972368;28;20140;-76
2021/03/07 06:54:43;;;;;;;14.80;9.37;;;;;;;1.05;85.32;102812.97;4978355;28;20453;-76
2021/03/07 06:57:08;;;;;;;16.60;9.73;;;;;;;1.10;83.95;102810.13;4977795;28;20043;-77
2021/03/07 06:59:35;;;;;;;15.18;8.05;;;;;;;1.16;78.97;102817.38;4978438;28;20359;-77
2021/03/07 07:02:01;;;;;;;15.17;9.57;;;;;;;1.22;83.26;102816.31;4973163;28;20021;-77
2021/03/07 07:04:39;;;;;;;15.30;9.48;;;;;;;1.16;82.80;102815.75;4975359;28;20076;-77
2021/03/07 07:07:13;;;;;;;15.27;9.53;;;;;;;1.35;81.46;102823.41;4961027;28;20021;-76
2021/03/07 07:09:40;;;;;;;15.40;9.67;;;;;;;1.34;84.75;102825.81;4949507;28;20056;-77
2021/03/07 07:12:22;;;;;;;11.00;7.47;;;;;;;1.31;80.13;102820.47;4970896;28;20029;-76
2021/03/07 07:14:48;;;;;;;13.30;6.67;;;;;;;1.40;75.35;102823.81;4970999;28;20033;-76
2021/03/07 07:17:18;;;;;;;10.98;7.43;;;;;;;1.60;75.49;102824.00;4949438;28;20144;-77
2021/03/07 07:19:45;;;;;;;14.63;9.77;;;;;;;1.69;77.16;102817.25;4972670;28;20131;-77
2021/03/07 07:22:13;;;;;;;16.93;10.93;;;;;;;1.70;75.28;102813.06;4957957;28;20094;-77
2021/03/07 07:24:40;;;;;;;20.53;12.70;;;;;;;1.79;77.89;102812.25;4952051;28;20021;-77
2021/03/07 07:27:05;;;;;;;20.93;12.73;;;;;;;1.96;78.10;102821.38;4970685;28;20032;-77
2021/03/07 07:29:37;;;;;;;19.77;12.75;;;;;;;1.93;77.79;102820.19;4973928;28;20021;-76
2021/03/07 07:32:04;;;;;;;20.23;12.23;;;;;;;2.00;79.06;102825.09;4953974;28;20037;-77
2021/03/07 07:34:52;;;;;;;18.47;11.40;;;;;;;2.07;79.12;102818.16;4972904;28;20123;-77
2021/03/07 07:37:24;;;;;;;16.40;10.60;;;;;;;2.11;79.95;102816.78;4947902;28;20025;-76
2021/03/07 07:39:54;;;;;;;17.23;10.70;;;;;;;2.13;80.53;102816.16;4978588;28;20056;-77
2021/03/07 07:42:31;;;;;;;15.57;10.10;;;;;;;2.20;80.72;102817.59;4967596;28;20164;-77
2021/03/07 07:45:17;;;;;;;16.48;10.77;;;;;;;2.23;80.38;102817.88;4969068;28;20017;-77
2021/03/07 07:47:52;;;;;;;10.85;8.20;;;;;;;2.40;79.98;102812.66;4956380;28;20049;-76
2021/03/07 07:50:34;;;;;;;17.00;10.43;;;;;;;2.20;81.38;102817.59;4968590;28;20035;-77
2021/03/07 07:53:00;;;;;;;15.20;11.13;;;;;;;2.43;81.59;102805.31;4978068;28;20881;-76
2021/03/07 07:55:56;;;;;;;16.70;9.93;;;;;;;2.53;80.70;102804.44;4973868;28;20032;-77
2021/03/07 07:58:34;;;;;;;16.10;11.03;;;;;;;2.60;81.01;102803.34;4983183;28;20049;-77
2021/03/07 08:01:13;;;;;;;15.93;9.50;;;;;;;2.55;78.45;102807.13;4974012;28;20546;-77
2021/03/07 08:03:43;;;;;;;15.43;10.23;;;;;;;2.48;79.64;102806.59;4967987;28;20059;-77
2021/03/07 08:06:11;;;;;;;19.53;10.83;;;;;;;2.46;80.00;102800.50;4952054;28;20028;-77
2021/03/07 08:08:39;;;;;;;18.87;10.87;;;;;;;2.53;79.43;102798.50;4951935;28;20044;-76
2021/03/07 08:11:07;;;;;;;15.80;10.03;;;;;;;2.61;77.36;102800.97;4949834;28;20095;-76
2021/03/07 08:13:35;;;;;;;19.13;10.13;;;;;;;2.71;75.79;102800.09;4950187;28;20048;-76
2021/03/07 08:16:05;;;;;;;15.27;10.63;;;;;;;2.72;76.13;102801.88;5021856;22;20638;-73
2021/03/07 08:18:47;;;;;;;18.63;10.50;;;;;;;2.70;76.06;102803.41;4984405;28;20093;-73
2021/03/07 08:21:14;;;;;;;13.40;9.27;;;;;;;2.95;77.20;102797.16;5004346;28;20032;-73
2021/03/07 08:23:56;;;;;;;15.53;10.30;;;;;;;3.17;77.04;102804.91;5018507;28;20023;-73
2021/03/07 08:26:43;;;;;;;15.60;10.60;;;;;;;3.30;78.02;102802.66;5021910;28;20159;-74
2021/03/07 08:29:38;;;;;;;12.20;7.97;;;;;;;3.66;77.06;102799.75;4981832;28;20047;-73
2021/03/07 08:32:30;;;;;;;14.77;9.17;;;;;;;3.49;77.18;102794.91;4988814;28;20057;-73
2021/03/07 08:34:58;;;;;;;14.33;10.30;;;;;;;3.53;75.51;102796.94;5014858;28;20050;-73
2021/03/07 08:37:24;;;;;;;12.37;8.80;;;;;;;3.53;74.80;102790.97;4991942;28;20020;-73
2021/03/07 08:40:28;;;;;;;16.08;9.65;;;;;;;3.48;73.34;102795.69;5015899;28;20168;-73
2021/03/07 08:42:56;;;;;;;12.23;7.10;;;;;;;3.63;70.04;102789.34;4996116;28;20556;-73
2021/03/07 08:45:22;;;;;;;9.90;6.27;;;;;;;3.69;67.19;102784.75;5004266;28;20024;-73
2021/03/07 08:47:56;;;;;;;11.30;7.47;;;;;;;3.48;70.25;102793.13;4999943;28;20093;-76
2021/03/07 08:50:23;;;;;;;11.37;7.40;;;;;;;3.37;71.92;102786.28;5018111;28;20024;-75
2021/03/07 08:52:50;;;;;;;15.07;7.80;;;;;;;3.55;71.71;102785.25;5001708;28;20024;-76
2021/03/07 08:55:16;;;;;;;8.80;6.20;;;;;;;3.62;68.64;102779.94;5001184;28;20105;-77
2021/03/07 08:57:46;;;;;;;8.40;5.78;;;;;;;3.61;66.31;102770.53;5002914;28;20404;-76
2021/03/07 09:00:14;;;;;;;12.77;7.10;;;;;;;3.57;67.35;102778.66;5012972;28;20040;-78
2021/03/07 09:02:40;;;;;;;11.20;6.90;;;;;;;3.61;66.09;102770.53;5005420;28;20023;-77
2021/03/07 09:05:09;;;;;;;11.13;6.95;;;;;;;3.69;67.21;102774.59;5022846;28;20788;-78
2021/03/07 09:07:35;;;;;;;9.20;6.43;;;;;;;3.60;65.38;102772.97;5010533;28;20051;-78
2021/03/07 09:10:00;;;;;;;8.80;6.53;;;;;;;3.68;66.04;102772.81;5022799;28;20361;-76
2021/03/07 09:12:26;;;;;;;8.77;6.00;;;;;;;3.96;65.48;102770.00;5001418;28;20024;-74
2021/03/07 09:14:52;;;;;;;11.23;6.90;;;;;;;4.01;65.44;102764.50;5013360;28;20032;-75
2021/03/07 09:17:20;;;;;;;10.43;6.07;;;;;;;4.27;64.41;102760.63;5001268;28;20450;-76
2021/03/07 09:19:45;;;;;;;11.40;5.70;;;;;;;3.99;61.39;102767.69;4996492;28;20612;-75
2021/03/07 09:22:12;;;;;;;11.32;6.97;;;;;;;3.99;64.15;102766.03;4991427;28;20035;-75
2021/03/07 09:24:46;;;;;;;11.63;7.43;;;;;;;4.29;65.63;102759.97;4992695;28;20617;-73
2021/03/07 09:27:13;;;;;;;11.47;6.43;;;;;;;4.04;63.22;102768.94;5019076;28;20131;-73
2021/03/07 09:30:13;;;;;;;11.13;6.37;;;;;;;4.18;63.30;102757.31;4996342;28;20021;-74
2021/03/07 09:32:47;;;;;;;9.27;6.23;;;;;;;4.39;63.80;102761.59;4951080;28;20035;-74
2021/03/07 09:35:34;;;;;;;11.67;6.23;;;;;;;4.48;61.85;102764.84;5016447;28;20064;-75
2021/03/07 09:38:01;;;;;;;;;;;;;;;4.33;61.76;102763.66;5004781;28;20012;-75
2021/03/07 09:40:28;;;;;;;;;;;;;;;4.18;58.84;102754.78;5003166;28;19916;-75
2021/03/07 09:43:00;;;;;;;11.18;6.30;;;;;;;4.27;58.55;102755.53;5004800;28;19912;-75
2021/03/07 09:45:26;;;;;;;10.10;6.10;;;;;;;4.42;58.55;102753.31;5003673;28;20019;-75
2021/03/07 09:47:54;;;;;;;8.60;6.00;;;;;;;4.58;59.45;102761.41;4988978;28;20051;-75
2021/03/07 09:50:22;;;;;;;10.70;5.80;;;;;;;4.82;57.82;102753.09;4983751;28;20209;-74
2021/03/07 09:52:48;;;;;;;10.37;5.80;;;;;;;4.78;56.62;102753.63;5002496;28;20028;-73
2021/03/07 09:55:23;;;;;;;11.05;5.97;;;;;;;4.75;56.67;102753.41;5019055;28;20255;-74
2021/03/07 09:58:02;;;;;;;10.10;6.30;;;;;;;4.75;56.68;102752.50;5014379;28;20012;-73
2021/03/07 10:00:29;;;;;;;10.93;5.63;;;;;;;4.50;55.49;102757.34;4984481;28;20142;-74
2021/03/07 10:02:54;;;;;;;9.73;6.00;;;;;;;4.58;57.91;102758.84;5017038;28;20020;-74
2021/03/07 10:05:20;;;;;;;10.82;6.47;;;;;;;4.86;57.01;102752.56;5010409;28;20343;-74
2021/03/07 10:07:46;;;;;;;10.80;6.57;;;;;;;4.95;58.39;102748.19;5003292;28;20308;-74
2021/03/07 10:10:23;;;;;;;10.43;6.40;;;;;;;5.12;57.65;102756.22;5017754;28;20361;-74
2021/03/07 10:12:54;;;;;;;8.63;5.67;;;;;;;5.24;57.17;102749.53;5018713;28;20024;-74
2021/03/07 10:15:28;;;;;;;11.50;6.40;;;;;;;5.13;59.64;102755.44;5008330;28;20106;-74
2021/03/07 10:18:02;;;;;;;10.93;6.47;;;;;;;5.17;57.78;102753.25;5000603;28;20060;-74
2021/03/07 10:20:36;;;;;;;10.03;6.23;;;;;;;5.20;58.36;102752.59;5001554;28;20051;-74
2021/03/07 10:23:02;;;;;;;15.33;6.33;;;;;;;5.32;57.75;102748.44;5004815;28;20048;-74
2021/03/07 10:25:33;;;;;;;12.00;6.68;;;;;;;5.26;56.24;102748.88;4993813;28;20020;-74
2021/03/07 10:28:21;;;;;;;10.87;6.17;;;;;;;5.36;56.07;102740.25;5020573;28;20602;-73
2021/03/07 10:30:47;;;;;;;9.30;5.60;;;;;;;5.50;56.42;102739.59;4993318;28;20553;-74
2021/03/07 10:33:17;;;;;;;;;;;;;;;5.75;56.12;102737.22;4988157;28;20553;-74
2021/03/07 10:36:02;;;;;;;11.40;6.53;;;;;;;5.87;54.65;102735.56;4989709;28;19962;-74
2021/03/07 10:38:29;;;;;;;10.00;5.90;;;;;;;5.92;54.58;102736.81;4992686;28;20054;-73
2021/03/07 10:40:55;;;;;;;10.57;5.73;;;;;;;5.85;55.42;102734.59;5006959;28;20055;-73
2021/03/07 10:43:21;;;;;;;10.65;6.50;;;;;;;5.86;56.56;102744.00;5013909;28;20020;-73
2021/03/07 10:45:47;;;;;;;9.00;6.20;;;;;;;5.86;55.40;102738.00;5022983;28;20342;-74
2021/03/07 10:48:14;;;;;;;9.68;5.32;;;;;;;5.88;55.68;102733.91;5019007;28;20325;-74
2021/03/07 10:50:43;;;;;;;11.83;6.90;;;;;;;5.96;54.93;102731.94;4990275;28;20020;-74
2021/03/07 10:53:10;;;;;;;9.90;6.27;;;;;;;5.80;55.54;102735.88;5008212;28;20016;-74
2021/03/07 10:55:36;;;;;;;9.70;5.83;;;;;;;5.90;54.12;102727.28;5004771;28;20071;-74
2021/03/07 10:58:01;;;;;;;11.75;6.68;;;;;;;5.89;56.29;102725.47;4989464;28;20303;-74
2021/03/07 11:00:27;;;;;;;10.15;6.03;;;;;;;6.18;56.22;102723.41;5018204;28;20378;-74
2021/03/07 11:02:53;;;;;;;10.50;6.15;;;;;;;6.29;56.14;102726.72;5003048;28;21061;-74
2021/03/07 11:05:19;;;;;;;9.03;5.80;;;;;;;6.57;55.34;102723.56;4997912;28;20136;-74
2021/03/07 11:07:45;;;;;;;8.85;6.43;;;;;;;6.61;57.64;102722.97;5007514;28;20016;-74
2021/03/07 11:10:12;;;;;;;;;;;;;;;6.68;54.53;102725.16;5002271;28;20104;-74
2021/03/07 11:12:38;;;;;;;7.18;4.38;;;;;;;6.60;54.44;102719.53;4990915;28;19927;-75
2021/03/07 11:15:04;;;;;;;10.27;5.35;;;;;;;6.78;52.75;102720.78;5016263;28;20028;-74
2021/03/07 11:17:30;;;;;;;10.33;6.23;;;;;;;6.73;55.58;102723.81;4993257;28;20138;-74
2021/03/07 11:19:55;;;;;;;8.13;5.65;;;;;;;6.63;54.33;102719.75;4999839;28;20334;-73
2021/03/07 11:22:21;;;;;;;7.65;5.05;;;;;;;6.52;54.35;102719.00;5000724;28;20032;-74
2021/03/07 11:24:47;;;;;;;9.82;5.53;;;;;;;6.65;53.41;102719.84;5000212;28;20029;-73
2021/03/07 11:27:13;;;;;;;;;;;;;;;6.56;54.47;102725.22;4993116;28;20020;-74
2021/03/07 11:29:38;;;;;;;8.27;4.93;;;;;;;6.45;54.19;102721.00;4988969;28;20199;-74
2021/03/07 11:32:04;;;;;;;8.15;3.25;;;;;;;6.14;55.36;102723.94;4998292;28;20372;-74
2021/03/07 11:34:30;;;;;;;5.82;3.20;;;;;;;6.04;55.94;102726.59;4995944;28;20448;-73